Time;durP1;ratioP1;P1;durP2;ratioP2;P2;SDS_P1;SDS_P2;PMS_P1;PMS_P2;Temp;Humidity;BMP_temperature;BMP_pressure;BME280_temperature;BME280_humidity;BME280_pressure;Samples;Min_cycle;Max_cycle;Signal;HPM_P1;HPM_P2
2023/01/01 00:02:22;;;;;;;;;;;14.90;88.00;;;;;;5079199;28;19938;-73
2023/01/01 00:04:49;;;;;;;;;;;14.80;88.90;;;;;;5074180;28;20000;-72
2023/01/01 00:07:17;;;;;;;;;;;14.80;89.10;;;;;;5076116;28;19924;-72
2023/01/01 00:12:27;;;;;;;;;;;14.80;88.40;;;;;;5075172;28;19931;-72
2023/01/01 00:14:54;;;;;;;;;;;14.80;87.40;;;;;;5074005;28;20986;-72
2023/01/01 00:17:21;;;;;;;;;;;14.80;87.50;;;;;;5077069;28;19925;-72
2023/01/01 00:19:47;;;;;;;;;;;14.80;88.20;;;;;;5075691;28;19928;-72
2023/01/01 00:22:14;;;;;;;;;;;14.80;87.00;;;;;;5077821;28;20022;-73
2023/01/01 00:24:42;;;;;;;;;;;14.80;87.40;;;;;;5074440;28;19938;-73
2023/01/01 00:27:09;;;;;;;;;;;14.80;86.40;;;;;;5075698;28;20302;-73
2023/01/01 00:29:38;;;;;;;;;;;14.70;86.90;;;;;;5077255;28;20023;-73
2023/01/01 00:32:11;;;;;;;;;;;14.70;87.30;;;;;;5075504;28;19967;-73
2023/01/01 00:34:40;;;;;;;;;;;14.80;86.20;;;;;;5074588;28;19928;-72
2023/01/01 00:37:07;;;;;;;;;;;14.80;86.10;;;;;;5077422;28;19932;-72
2023/01/01 00:39:34;;;;;;;;;;;14.80;86.40;;;;;;5078024;28;20491;-73
2023/01/01 00:42:04;;;;;;;;;;;14.70;86.90;;;;;;5076602;28;19933;-72
2023/01/01 00:44:31;;;;;;;;;;;14.70;87.00;;;;;;5076142;28;20450;-73
2023/01/01 00:46:58;;;;;;;;;;;14.60;87.50;;;;;;5075956;28;20541;-72
2023/01/01 00:49:25;;;;;;;;;;;14.70;86.60;;;;;;5077176;28;20369;-72
2023/01/01 00:51:51;;;;;;;;;;;14.80;86.90;;;;;;5073286;28;19967;-72
2023/01/01 00:54:18;;;;;;;;;;;14.70;86.20;;;;;;5076186;28;19939;-73
2023/01/01 00:56:45;;;;;;;;;;;14.80;85.70;;;;;;5073176;28;19932;-72
2023/01/01 00:59:13;;;;;;;;;;;14.80;85.90;;;;;;5078465;28;19939;-72
2023/01/01 01:01:41;;;;;;;;;;;14.70;85.80;;;;;;5076611;28;19928;-73
2023/01/01 01:04:09;;;;;;;;;;;14.70;85.30;;;;;;5079245;28;20305;-73
2023/01/01 01:06:35;;;;;;;;;;;14.80;84.30;;;;;;5073084;28;19935;-72
2023/01/01 01:09:03;;;;;;;;;;;14.80;84.00;;;;;;5074595;28;19932;-72
2023/01/01 01:11:30;;;;;;;;;;;14.80;83.50;;;;;;5076069;28;19924;-72
2023/01/01 01:13:57;;;;;;;;;;;14.80;83.70;;;;;;5077883;28;19928;-72
2023/01/01 01:16:26;;;;;;;;;;;14.80;83.00;;;;;;5073603;28;19982;-73
2023/01/01 01:18:56;;;;;;;;;;;14.80;83.70;;;;;;5077714;28;19924;-73
2023/01/01 01:21:26;;;;;;;;;;;14.80;83.50;;;;;;5071938;28;19939;-72
2023/01/01 01:23:53;;;;;;;;;;;14.80;82.90;;;;;;5073855;28;19932;-72
2023/01/01 01:26:28;;;;;;;;;;;14.80;83.20;;;;;;5074597;28;19934;-71
2023/01/01 01:28:55;;;;;;;;;;;14.80;83.40;;;;;;5071680;28;19928;-73
2023/01/01 01:31:23;;;;;;;;;;;14.80;83.40;;;;;;5072484;28;20010;-71
2023/01/01 01:33:56;;;;;;;;;;;14.80;84.00;;;;;;5073877;28;19929;-72
2023/01/01 01:36:23;;;;;;;;;;;14.80;83.70;;;;;;5075874;28;19932;-73
2023/01/01 01:38:49;;;;;;;;;;;14.80;84.00;;;;;;5074677;28;20014;-73
2023/01/01 01:41:17;;;;;;;;;;;14.80;83.90;;;;;;5074447;28;19928;-73
2023/01/01 01:43:46;;;;;;;;;;;14.80;84.60;;;;;;5076008;28;19939;-73
2023/01/01 01:46:14;;;;;;;;;;;14.80;84.40;;;;;;5075128;28;20403;-72
2023/01/01 01:48:43;;;;;;;;;;;14.80;84.70;;;;;;5072104;28;19935;-73
2023/01/01 01:51:13;;;;;;;;;;;14.80;85.00;;;;;;5077631;28;19928;-72
2023/01/01 01:53:43;;;;;;;;;;;14.80;85.70;;;;;;5072295;28;20390;-72
2023/01/01 01:56:11;;;;;;;;;;;14.80;86.20;;;;;;5075458;28;19960;-71
2023/01/01 01:58:38;;;;;;;;;;;14.80;86.90;;;;;;5075324;28;19930;-72
2023/01/01 02:01:05;;;;;;;;;;;14.70;87.70;;;;;;5079411;28;20023;-73
2023/01/01 02:03:36;;;;;;;;;;;14.70;87.20;;;;;;5081354;28;19931;-73
2023/01/01 02:06:03;;;;;;;;;;;14.60;88.20;;;;;;5079137;28;20037;-73
2023/01/01 02:08:31;;;;;;;;;;;14.50;88.30;;;;;;5080250;28;19935;-73
2023/01/01 02:10:58;;;;;;;;;;;14.50;88.90;;;;;;5079697;28;19934;-71
2023/01/01 02:13:25;;;;;;;;;;;14.50;89.00;;;;;;5078577;28;19932;-71
2023/01/01 02:15:54;;;;;;;;;;;14.40;89.40;;;;;;5076993;28;19924;-72
2023/01/01 02:18:24;;;;;;;;;;;14.40;90.00;;;;;;5079950;28;19928;-72
2023/01/01 02:20:54;;;;;;;;;;;14.40;90.20;;;;;;5078811;28;19940;-71
2023/01/01 02:23:26;;;;;;;;;;;14.40;90.10;;;;;;5078656;28;20010;-72
2023/01/01 02:26:00;;;;;;;;;;;14.40;90.20;;;;;;5080226;28;19939;-72
2023/01/01 02:28:37;;;;;;;;;;;14.40;90.50;;;;;;5087475;28;19935;-72
2023/01/01 02:31:05;;;;;;;;;;;14.50;90.60;;;;;;5079685;28;19928;-71
2023/01/01 02:33:33;;;;;;;;;;;14.50;90.70;;;;;;5077282;28;19931;-72
2023/01/01 02:36:02;;;;;;;;;;;14.40;91.10;;;;;;5081375;28;19928;-72
2023/01/01 02:38:30;;;;;;;;;;;14.40;91.30;;;;;;5077472;28;19924;-72
2023/01/01 02:41:06;;;;;;;;;;;14.40;91.30;;;;;;5076228;28;20459;-71
2023/01/01 02:43:33;;;;;;;;;;;14.40;91.10;;;;;;5080954;28;19938;-72
2023/01/01 02:46:05;;;;;;;;;;;14.40;91.40;;;;;;5076763;28;20011;-72
2023/01/01 02:48:36;;;;;;;;;;;14.40;91.30;;;;;;5078944;28;20089;-73
2023/01/01 02:51:04;;;;;;;;;;;14.40;91.70;;;;;;5080650;28;19928;-73
2023/01/01 02:53:33;;;;;;;;;;;14.40;91.80;;;;;;5079536;28;20026;-73
2023/01/01 02:56:02;;;;;;;;;;;14.40;92.10;;;;;;5078949;28;20030;-72
2023/01/01 03:01:21;;;;;;;;;;;14.30;92.30;;;;;;5075972;28;19940;-74
2023/01/01 03:03:51;;;;;;;;;;;14.30;92.60;;;;;;5078186;28;19935;-72
2023/01/01 03:06:25;;;;;;;;;;;14.40;92.80;;;;;;5075918;28;19928;-72
2023/01/01 03:08:58;;;;;;;;;;;14.40;93.10;;;;;;5073671;28;19932;-71
2023/01/01 03:11:27;;;;;;;;;;;14.40;93.20;;;;;;5078314;28;19964;-71
2023/01/01 03:13:58;;;;;;;;;;;14.40;93.30;;;;;;5074617;28;20011;-71
2023/01/01 03:16:29;;;;;;;;;;;14.40;93.20;;;;;;5076969;28;19974;-71
2023/01/01 03:19:10;;;;;;;;;;;14.40;93.30;;;;;;5079433;28;19936;-71
2023/01/01 03:21:46;;;;;;;;;;;14.40;93.50;;;;;;5078228;28;19939;-71
2023/01/01 03:24:16;;;;;;;;;;;14.40;93.90;;;;;;5074785;28;19967;-70
2023/01/01 03:26:43;;;;;;;;;;;14.40;94.30;;;;;;5074447;28;20405;-71
2023/01/01 03:29:11;;;;;;;;;;;14.40;94.60;;;;;;5076702;28;19978;-70
2023/01/01 03:31:42;;;;;;;;;;;14.30;94.90;;;;;;5075963;28;19928;-72
2023/01/01 03:34:12;;;;;;;;;;;14.30;95.10;;;;;;5077223;28;19932;-72
2023/01/01 03:36:40;;;;;;;;;;;14.30;95.30;;;;;;5077378;28;19935;-71
2023/01/01 03:39:09;;;;;;;;;;;14.30;95.50;;;;;;5074919;28;20437;-72
2023/01/01 03:41:38;;;;;;;;;;;14.30;95.50;;;;;;5073880;28;20294;-71
2023/01/01 03:44:07;;;;;;;;;;;14.30;95.80;;;;;;5073607;28;19928;-71
2023/01/01 03:46:35;;;;;;;;;;;14.30;96.00;;;;;;5075490;28;19932;-72
2023/01/01 03:49:05;;;;;;;;;;;14.20;96.20;;;;;;5077348;28;19932;-73
2023/01/01 03:51:41;;;;;;;;;;;14.20;96.50;;;;;;5077905;28;19924;-72
2023/01/01 03:54:12;;;;;;;;;;;14.20;96.90;;;;;;5076723;28;20007;-71
2023/01/01 03:56:40;;;;;;;;;;;14.10;97.30;;;;;;5077475;28;20310;-71
2023/01/01 03:59:09;;;;;;;;;;;14.10;97.70;;;;;;5079224;28;19935;-72
2023/01/01 04:01:39;;;;;;;;;;;14.10;98.10;;;;;;5076562;28;19931;-72
2023/01/01 04:04:07;;;;;;;;;;;14.10;98.60;;;;;;5074997;28;19932;-71
2023/01/01 04:06:34;;;;;;;;;;;14.10;98.80;;;;;;5071375;28;20997;-70
2023/01/01 04:09:01;;;;;;;;;;;14.00;99.30;;;;;;5074671;28;20015;-73
2023/01/01 04:14:14;;;;;;;;;;;13.90;99.90;;;;;;5077494;28;19935;-72
2023/01/01 04:16:41;;;;;;;;;;;13.90;99.90;;;;;;5073745;28;20413;-72
2023/01/01 04:19:09;;;;;;;;;;;13.90;99.90;;;;;;5079314;28;20308;-73
2023/01/01 04:21:36;;;;;;;;;;;13.90;99.90;;;;;;5075493;28;19932;-72
2023/01/01 04:24:03;;;;;;;;;;;13.90;99.90;;;;;;5076757;28;20001;-72
2023/01/01 04:26:29;;;;;;;;;;;13.90;99.90;;;;;;5074026;28;19928;-73
2023/01/01 04:28:56;;;;;;;;;;;13.90;99.90;;;;;;5076242;28;19928;-72
2023/01/01 04:31:23;;;;;;;;;;;13.90;99.90;;;;;;5076761;28;19951;-73
2023/01/01 04:33:53;;;;;;;;;;;13.90;99.90;;;;;;5077951;28;19932;-72
2023/01/01 04:36:21;;;;;;;;;;;13.90;99.90;;;;;;5075325;28;19932;-72
2023/01/01 04:38:47;;;;;;;;;;;13.90;99.90;;;;;;5076818;28;19939;-72
2023/01/01 04:41:14;;;;;;;;;;;13.90;99.90;;;;;;5077358;28;19924;-73
2023/01/01 04:43:41;;;;;;;;;;;13.90;99.90;;;;;;5073989;28;19928;-72
2023/01/01 04:46:07;;;;;;;;;;;13.90;99.90;;;;;;5074532;28;20343;-72
2023/01/01 04:48:35;;;;;;;;;;;13.90;99.90;;;;;;5076074;28;19935;-72
2023/01/01 04:51:02;;;;;;;;;;;13.90;99.90;;;;;;5075332;28;19932;-72
2023/01/01 04:53:31;;;;;;;;;;;13.90;99.90;;;;;;5075222;28;19924;-72
2023/01/01 04:56:02;;;;;;;;;;;13.90;99.90;;;;;;5071773;28;20066;-72
2023/01/01 04:58:29;;;;;;;;;;;13.80;99.90;;;;;;5074206;28;19932;-73
2023/01/01 05:00:56;;;;;;;;;;;13.80;99.90;;;;;;5076151;28;20047;-71
2023/01/01 05:03:22;;;;;;;;;;;13.80;99.90;;;;;;5077803;28;19932;-71
2023/01/01 05:05:59;;;;;;;;;;;13.80;99.90;;;;;;5073893;28;19928;-71
2023/01/01 05:08:25;;;;;;;;;;;13.90;99.90;;;;;;5076614;28;19964;-72
2023/01/01 05:10:59;;;;;;;;;;;13.80;99.90;;;;;;5077007;28;19926;-72
2023/01/01 05:13:25;;;;;;;;;;;13.80;99.90;;;;;;5075050;28;20021;-72
2023/01/01 05:15:52;;;;;;;;;;;13.80;99.90;;;;;;5072118;28;19928;-72
2023/01/01 05:18:19;;;;;;;;;;;13.80;99.90;;;;;;5074682;28;20022;-72
2023/01/01 05:20:45;;;;;;;;;;;13.80;99.90;;;;;;5074705;28;20302;-72
2023/01/01 05:23:12;;;;;;;;;;;13.70;99.90;;;;;;5073021;28;20357;-72
2023/01/01 05:25:39;;;;;;;;;;;13.70;99.90;;;;;;5074236;28;19982;-72
2023/01/01 05:28:07;;;;;;;;;;;13.80;99.90;;;;;;5074053;28;20074;-71
2023/01/01 05:30:33;;;;;;;;;;;13.80;99.90;;;;;;5076710;28;19954;-72
2023/01/01 05:33:00;;;;;;;;;;;13.80;99.90;;;;;;5076832;28;20391;-73
2023/01/01 05:35:26;;;;;;;;;;;13.80;99.90;;;;;;5075457;28;19934;-72
2023/01/01 05:37:54;;;;;;;;;;;13.80;99.90;;;;;;5074523;28;19924;-72
2023/01/01 05:40:21;;;;;;;;;;;13.80;99.90;;;;;;5074702;28;20018;-72
2023/01/01 05:42:48;;;;;;;;;;;13.70;99.90;;;;;;5074610;28;19940;-72
2023/01/01 05:45:16;;;;;;;;;;;13.80;99.90;;;;;;5071344;28;20308;-73
2023/01/01 05:47:43;;;;;;;;;;;13.70;99.90;;;;;;5072490;28;20015;-72
2023/01/01 05:50:10;;;;;;;;;;;13.70;99.90;;;;;;5072584;28;19939;-72
2023/01/01 05:52:36;;;;;;;;;;;13.60;99.90;;;;;;5075810;28;19998;-72
2023/01/01 05:55:03;;;;;;;;;;;13.60;99.90;;;;;;5074490;28;20516;-72
2023/01/01 05:57:30;;;;;;;;;;;13.60;99.90;;;;;;5075362;28;19979;-72
2023/01/01 05:59:57;;;;;;;;;;;13.50;99.90;;;;;;5075464;28;19931;-72
2023/01/01 06:02:25;;;;;;;;;;;13.50;99.90;;;;;;5075425;28;20029;-73
2023/01/01 06:04:51;;;;;;;;;;;13.50;99.90;;;;;;5074489;28;19932;-72
2023/01/01 06:07:18;;;;;;;;;;;13.40;99.90;;;;;;5076118;28;19935;-72
2023/01/01 06:09:45;;;;;;;;;;;13.20;99.90;;;;;;5073672;28;20034;-72
2023/01/01 06:12:12;;;;;;;;;;;13.10;99.90;;;;;;5074616;28;19925;-72
2023/01/01 06:14:38;;;;;;;;;;;13.00;99.90;;;;;;5078491;28;19947;-72
2023/01/01 06:17:05;;;;;;;;;;;12.90;99.90;;;;;;5090893;28;20023;-71
2023/01/01 06:19:33;;;;;;;;;;;12.80;99.90;;;;;;5091836;28;20011;-72
2023/01/01 06:22:00;;;;;;;;;;;12.70;99.90;;;;;;5091372;28;19928;-72
2023/01/01 06:24:26;;;;;;;;;;;12.60;99.90;;;;;;5088717;28;19967;-71
2023/01/01 06:26:53;;;;;;;;;;;12.60;99.90;;;;;;5089318;28;20325;-72
2023/01/01 06:29:20;;;;;;;;;;;12.50;99.90;;;;;;5087185;28;23269;-72
2023/01/01 06:31:46;;;;;;;;;;;12.40;99.90;;;;;;5073170;28;19961;-72
2023/01/01 06:34:13;;;;;;;;;;;12.40;99.90;;;;;;5072988;28;20071;-72
2023/01/01 06:36:41;;;;;;;;;;;12.30;99.90;;;;;;5073594;28;20023;-72
2023/01/01 06:39:08;;;;;;;;;;;12.30;99.90;;;;;;5075018;28;20306;-72
2023/01/01 06:41:35;;;;;;;;;;;12.30;99.90;;;;;;5071997;28;19924;-73
2023/01/01 06:44:02;;;;;;;;;;;12.30;99.90;;;;;;5071980;28;20062;-71
2023/01/01 06:46:29;;;;;;;;;;;12.30;99.90;;;;;;5074030;28;20069;-72
2023/01/01 06:48:57;;;;;;;;;;;12.20;99.90;;;;;;5079648;28;19931;-71
2023/01/01 06:51:24;;;;;;;;;;;12.30;99.90;;;;;;5077036;28;19969;-72
2023/01/01 06:53:53;;;;;;;;;;;12.20;99.90;;;;;;5079190;28;19946;-73
2023/01/01 06:56:20;;;;;;;;;;;12.20;99.90;;;;;;5076358;28;20383;-72
2023/01/01 06:58:46;;;;;;;;;;;12.20;99.90;;;;;;5077387;28;20330;-71
2023/01/01 07:01:14;;;;;;;;;;;12.20;99.90;;;;;;5076163;28;19928;-72
2023/01/01 07:03:41;;;;;;;;;;;12.10;99.90;;;;;;5078060;28;19925;-72
2023/01/01 07:06:08;;;;;;;;;;;12.10;99.90;;;;;;5076382;28;19939;-72
2023/01/01 07:08:35;;;;;;;;;;;12.10;99.90;;;;;;5076758;28;19924;-72
2023/01/01 07:11:03;;;;;;;;;;;12.10;99.90;;;;;;5075912;28;19928;-73
2023/01/01 07:13:30;;;;;;;;;;;12.10;99.90;;;;;;5076328;28;19939;-72
2023/01/01 07:15:57;;;;;;;;;;;12.00;99.90;;;;;;5072171;28;20440;-73
2023/01/01 07:18:24;;;;;;;;;;;12.00;99.90;;;;;;5073811;28;20415;-73
2023/01/01 07:20:52;;;;;;;;;;;12.00;99.90;;;;;;5077841;28;19950;-73
2023/01/01 07:23:19;;;;;;;;;;;12.00;99.90;;;;;;5078765;28;19942;-74
2023/01/01 07:25:46;;;;;;;;;;;12.00;99.90;;;;;;5074435;28;19939;-72
2023/01/01 07:28:14;;;;;;;;;;;11.90;99.90;;;;;;5076174;28;20027;-72
2023/01/01 07:30:40;;;;;;;;;;;11.90;99.90;;;;;;5074778;28;20239;-72
2023/01/01 07:33:10;;;;;;;;;;;12.00;99.90;;;;;;5075744;28;19930;-71
2023/01/01 07:35:37;;;;;;;;;;;12.10;99.90;;;;;;5076275;28;19950;-73
2023/01/01 07:38:03;;;;;;;;;;;12.30;99.90;;;;;;5074987;28;20674;-72
2023/01/01 07:40:30;;;;;;;;;;;12.50;99.90;;;;;;5073794;28;19939;-72
2023/01/01 07:42:57;;;;;;;;;;;12.60;99.90;;;;;;5074699;28;19936;-72
2023/01/01 07:45:25;;;;;;;;;;;12.70;99.90;;;;;;5073989;28;20379;-72
2023/01/01 07:47:53;;;;;;;;;;;12.80;99.90;;;;;;5079454;28;20037;-71
2023/01/01 07:50:20;;;;;;;;;;;12.90;99.90;;;;;;5076247;28;19930;-72
2023/01/01 07:52:47;;;;;;;;;;;12.90;99.90;;;;;;5077113;28;20387;-72
2023/01/01 07:55:14;;;;;;;;;;;12.90;99.90;;;;;;5078848;28;19971;-73
2023/01/01 07:57:41;;;;;;;;;;;12.90;99.90;;;;;;5072818;28;19928;-72
2023/01/01 08:00:08;;;;;;;;;;;12.80;99.90;;;;;;5075903;28;19939;-71
2023/01/01 08:02:36;;;;;;;;;;;12.90;99.90;;;;;;5076592;28;19928;-71
2023/01/01 08:05:03;;;;;;;;;;;12.80;99.90;;;;;;5072919;28;19934;-72
2023/01/01 08:07:29;;;;;;;;;;;12.80;99.90;;;;;;5075828;28;20462;-70
2023/01/01 08:09:56;;;;;;;;;;;12.70;99.90;;;;;;5076016;28;19928;-70
2023/01/01 08:12:24;;;;;;;;;;;12.70;99.90;;;;;;5073551;28;19938;-70
2023/01/01 08:14:51;;;;;;;;;;;12.70;99.90;;;;;;5076608;28;19935;-70
2023/01/01 08:17:17;;;;;;;;;;;12.70;99.90;;;;;;5076976;28;20027;-70
2023/01/01 08:19:46;;;;;;;;;;;12.70;99.90;;;;;;5076063;28;20025;-71
2023/01/01 08:22:12;;;;;;;;;;;12.70;99.90;;;;;;5075244;28;19968;-70
2023/01/01 08:24:39;;;;;;;;;;;12.70;99.90;;;;;;5075481;28;19938;-71
2023/01/01 08:27:06;;;;;;;;;;;12.70;99.90;;;;;;5076217;28;20035;-71
2023/01/01 08:29:32;;;;;;;;;;;12.70;99.90;;;;;;5081801;28;20029;-69
2023/01/01 08:31:59;;;;;;;;;;;12.70;99.90;;;;;;5075750;28;19943;-69
2023/01/01 08:34:26;;;;;;;;;;;12.70;99.90;;;;;;5076739;28;19932;-70
2023/01/01 08:36:54;;;;;;;;;;;12.70;99.90;;;;;;5076244;28;20062;-70
2023/01/01 08:39:20;;;;;;;;;;;12.80;99.90;;;;;;5072964;28;20424;-67
2023/01/01 08:41:47;;;;;;;;;;;12.70;99.90;;;;;;5075059;28;19924;-69
2023/01/01 08:44:14;;;;;;;;;;;12.70;99.90;;;;;;5077331;28;19936;-68
2023/01/01 08:46:40;;;;;;;;;;;12.80;99.90;;;;;;5075751;28;19931;-68
2023/01/01 08:49:07;;;;;;;;;;;12.80;99.90;;;;;;5077110;28;20368;-68
2023/01/01 08:51:34;;;;;;;;;;;12.80;99.90;;;;;;5076797;28;20035;-71
2023/01/01 08:54:03;;;;;;;;;;;12.70;99.90;;;;;;5078113;28;19932;-71
2023/01/01 08:56:30;;;;;;;;;;;12.80;99.90;;;;;;5074790;28;19924;-71
2023/01/01 08:58:56;;;;;;;;;;;12.80;99.90;;;;;;5074875;28;19994;-71
2023/01/01 09:01:26;;;;;;;;;;;12.80;99.90;;;;;;5076101;28;19963;-71
2023/01/01 09:03:53;;;;;;;;;;;12.80;99.90;;;;;;5077737;28;19928;-70
2023/01/01 09:06:20;;;;;;;;;;;12.80;99.90;;;;;;5074345;28;20400;-71
2023/01/01 09:08:46;;;;;;;;;;;12.80;99.90;;;;;;5076835;28;19927;-72
2023/01/01 09:11:21;;;;;;;;;;;12.90;99.90;;;;;;5075158;28;20031;-71
2023/01/01 09:13:48;;;;;;;;;;;12.80;99.90;;;;;;5074288;28;19930;-72
2023/01/01 09:16:15;;;;;;;;;;;12.80;99.90;;;;;;5072668;28;19932;-71
2023/01/01 09:18:41;;;;;;;;;;;12.80;99.90;;;;;;5070486;28;19932;-71
2023/01/01 09:21:08;;;;;;;;;;;12.80;99.90;;;;;;5074227;28;19938;-71
2023/01/01 09:23:35;;;;;;;;;;;12.80;99.90;;;;;;5075551;28;20065;-71
2023/01/01 09:26:02;;;;;;;;;;;12.80;99.90;;;;;;5071398;28;20324;-71
2023/01/01 09:28:30;;;;;;;;;;;12.80;99.90;;;;;;5072379;28;19924;-71
2023/01/01 09:30:57;;;;;;;;;;;12.80;99.90;;;;;;5070740;28;20540;-72
2023/01/01 09:33:23;;;;;;;;;;;12.80;99.90;;;;;;5073148;28;19931;-72
2023/01/01 09:35:50;;;;;;;;;;;12.70;99.90;;;;;;5073112;28;19939;-71
2023/01/01 09:38:18;;;;;;;;;;;12.70;99.90;;;;;;5074181;28;20051;-72
2023/01/01 09:40:48;;;;;;;;;;;12.70;99.90;;;;;;5073349;28;19967;-72
2023/01/01 09:43:21;;;;;;;;;;;12.70;99.90;;;;;;5069757;28;19930;-72
2023/01/01 09:45:54;;;;;;;;;;;12.70;99.90;;;;;;5066683;28;20406;-72
2023/01/01 09:48:21;;;;;;;;;;;12.70;99.90;;;;;;5069554;28;19928;-71
2023/01/01 09:50:48;;;;;;;;;;;12.70;99.90;;;;;;5072408;28;19943;-69
2023/01/01 09:53:17;;;;;;;;;;;12.70;99.90;;;;;;5072982;28;19928;-71
2023/01/01 09:55:46;;;;;;;;;;;12.70;99.90;;;;;;5071381;28;19924;-70
2023/01/01 09:58:13;;;;;;;;;;;12.70;99.90;;;;;;5076626;28;20043;-70
2023/01/01 10:00:41;;;;;;;;;;;12.80;99.90;;;;;;5067425;28;19932;-71
2023/01/01 10:03:18;;;;;;;;;;;12.80;99.90;;;;;;5071533;28;19939;-71
2023/01/01 10:05:49;;;;;;;;;;;12.80;99.90;;;;;;5069904;28;19924;-70
2023/01/01 10:08:21;;;;;;;;;;;12.80;99.90;;;;;;5070075;28;19934;-71
2023/01/01 10:10:51;;;;;;;;;;;12.80;99.90;;;;;;5072921;28;19938;-71
2023/01/01 10:13:22;;;;;;;;;;;12.80;99.90;;;;;;5073316;28;20359;-71
2023/01/01 10:15:52;;;;;;;;;;;12.90;99.90;;;;;;5071235;28;19942;-71
2023/01/01 10:18:23;;;;;;;;;;;12.90;99.90;;;;;;5073866;28;20003;-72
2023/01/01 10:20:53;;;;;;;;;;;12.90;99.90;;;;;;5075178;28;19932;-71
2023/01/01 10:23:23;;;;;;;;;;;13.00;99.90;;;;;;5078602;28;19928;-72
2023/01/01 10:25:49;;;;;;;;;;;13.10;99.90;;;;;;5075363;28;19932;-72
2023/01/01 10:28:20;;;;;;;;;;;13.10;99.90;;;;;;5077000;28;20019;-71
2023/01/01 10:30:47;;;;;;;;;;;13.20;99.90;;;;;;5075822;28;19966;-71
2023/01/01 10:33:14;;;;;;;;;;;13.20;99.90;;;;;;5077995;28;19955;-71
2023/01/01 10:35:45;;;;;;;;;;;13.20;99.90;;;;;;5075129;28;19932;-70
2023/01/01 10:38:18;;;;;;;;;;;13.30;99.90;;;;;;5078816;28;19928;-71
2023/01/01 10:40:45;;;;;;;;;;;13.30;99.90;;;;;;5076153;28;20017;-71
2023/01/01 10:43:11;;;;;;;;;;;13.40;99.90;;;;;;5075000;28;19932;-71
2023/01/01 10:45:42;;;;;;;;;;;13.50;99.90;;;;;;5073517;28;20038;-72
2023/01/01 10:48:09;;;;;;;;;;;13.50;99.90;;;;;;5072787;28;19959;-71
2023/01/01 10:50:41;;;;;;;;;;;13.60;99.90;;;;;;5075715;28;20685;-71
2023/01/01 10:53:18;;;;;;;;;;;13.60;99.90;;;;;;5075377;28;19954;-70
2023/01/01 10:55:48;;;;;;;;;;;13.70;99.90;;;;;;5076213;28;19932;-69
2023/01/01 10:58:25;;;;;;;;;;;13.80;99.90;;;;;;5076308;28;20417;-70
2023/01/01 11:00:57;;;;;;;;;;;13.90;99.90;;;;;;5077182;28;19928;-69
2023/01/01 11:03:24;;;;;;;;;;;13.90;99.90;;;;;;5077108;28;19932;-69
2023/01/01 11:06:00;;;;;;;;;;;14.00;99.90;;;;;;5076396;28;21279;-69
2023/01/01 11:08:29;;;;;;;;;;;14.00;99.90;;;;;;5074010;28;20413;-72
2023/01/01 11:10:57;;;;;;;;;;;13.90;99.90;;;;;;5075643;28;19935;-71
2023/01/01 11:13:24;;;;;;;;;;;13.90;99.90;;;;;;5072270;28;20007;-71
2023/01/01 11:15:51;;;;;;;;;;;14.00;99.90;;;;;;5072659;28;19938;-70
2023/01/01 11:18:21;;;;;;;;;;;14.00;99.90;;;;;;5075853;28;19932;-71
2023/01/01 11:20:51;;;;;;;;;;;14.10;99.90;;;;;;5073835;28;19932;-69
2023/01/01 11:23:19;;;;;;;;;;;14.10;99.90;;;;;;5073230;28;19939;-69
2023/01/01 11:26:01;;;;;;;;;;;14.10;99.90;;;;;;5073133;28;19978;-69
2023/01/01 11:28:30;;;;;;;;;;;14.10;99.90;;;;;;5074946;28;19943;-69
2023/01/01 11:31:02;;;;;;;;;;;14.00;99.90;;;;;;5077551;28;19936;-69
2023/01/01 11:33:30;;;;;;;;;;;14.00;99.90;;;;;;5075241;28;20497;-68
2023/01/01 11:35:57;;;;;;;;;;;14.00;99.90;;;;;;5074686;28;20122;-70
2023/01/01 11:38:24;;;;;;;;;;;14.00;99.90;;;;;;5077060;28;19990;-70
2023/01/01 11:40:52;;;;;;;;;;;14.00;99.90;;;;;;5076586;28;19928;-70
2023/01/01 11:43:22;;;;;;;;;;;13.90;99.90;;;;;;5075040;28;19954;-70
2023/01/01 11:45:49;;;;;;;;;;;13.90;99.90;;;;;;5070913;28;20127;-69
2023/01/01 11:48:17;;;;;;;;;;;13.90;99.90;;;;;;5073165;28;20379;-70
2023/01/01 11:50:49;;;;;;;;;;;13.80;99.90;;;;;;5075028;28;20019;-70
2023/01/01 11:53:26;;;;;;;;;;;13.80;99.90;;;;;;5075193;28;20011;-70
2023/01/01 11:55:55;;;;;;;;;;;13.80;99.90;;;;;;5074316;28;19924;-68
2023/01/01 11:58:26;;;;;;;;;;;13.80;99.90;;;;;;5075974;28;19928;-70
2023/01/01 12:00:54;;;;;;;;;;;13.80;99.90;;;;;;5074511;28;19939;-70
2023/01/01 12:03:24;;;;;;;;;;;13.80;99.90;;;;;;5074842;28;20034;-70
2023/01/01 12:05:52;;;;;;;;;;;13.80;99.90;;;;;;5074185;28;19935;-70
2023/01/01 12:08:23;;;;;;;;;;;13.90;99.90;;;;;;5075671;28;19947;-71
2023/01/01 12:10:51;;;;;;;;;;;13.90;99.90;;;;;;5078129;28;19942;-71
2023/01/01 12:13:22;;;;;;;;;;;14.00;99.90;;;;;;5075261;28;19939;-71
2023/01/01 12:15:55;;;;;;;;;;;14.00;99.90;;;;;;5074450;28;19924;-70
2023/01/01 12:18:24;;;;;;;;;;;13.90;99.90;;;;;;5076703;28;19932;-71
2023/01/01 12:20:55;;;;;;;;;;;13.80;99.90;;;;;;5074971;28;19932;-69
2023/01/01 12:23:22;;;;;;;;;;;13.70;99.90;;;;;;5074096;28;20114;-70
2023/01/01 12:25:54;;;;;;;;;;;13.70;99.90;;;;;;5075468;28;19928;-70
2023/01/01 12:28:27;;;;;;;;;;;13.60;99.90;;;;;;5074180;28;19951;-69
2023/01/01 12:31:03;;;;;;;;;;;13.60;99.90;;;;;;5102171;22;20023;-69
2023/01/01 12:33:42;;;;;;;;;;;13.60;99.90;;;;;;5065408;28;19971;-71
2023/01/01 12:36:13;;;;;;;;;;;13.60;99.90;;;;;;5065514;28;20010;-70
2023/01/01 12:38:48;;;;;;;;;;;13.60;99.90;;;;;;5070257;28;20204;-72
2023/01/01 12:41:23;;;;;;;;;;;13.60;99.90;;;;;;5068057;28;19982;-71
2023/01/01 12:43:55;;;;;;;;;;;13.50;99.90;;;;;;5070119;28;19955;-69
2023/01/01 12:46:41;;;;;;;;;;;13.50;99.90;;;;;;5066867;28;19932;-70
2023/01/01 12:49:20;;;;;;;;;;;13.50;99.90;;;;;;5068760;28;19928;-69
2023/01/01 12:51:50;;;;;;;;;;;13.50;99.90;;;;;;5069056;28;19928;-70
2023/01/01 12:54:34;;;;;;;;;;;13.60;99.90;;;;;;5067237;28;19928;-70
2023/01/01 12:57:04;;;;;;;;;;;13.60;99.90;;;;;;5067662;28;20357;-71
2023/01/01 12:59:32;;;;;;;;;;;13.60;99.90;;;;;;5062670;28;20018;-70
2023/01/01 13:02:00;;;;;;;;;;;13.60;99.90;;;;;;5064811;28;20311;-70
2023/01/01 13:04:30;;;;;;;;;;;13.60;99.90;;;;;;5065544;28;19937;-69
2023/01/01 13:07:03;;;;;;;;;;;13.60;99.90;;;;;;5065337;28;20022;-69
2023/01/01 13:09:33;;;;;;;;;;;13.60;99.90;;;;;;5069600;28;20367;-71
2023/01/01 13:12:01;;;;;;;;;;;13.70;99.90;;;;;;5065117;28;20012;-71
2023/01/01 13:14:28;;;;;;;;;;;13.60;99.90;;;;;;5077876;28;20005;-71
2023/01/01 13:16:55;;;;;;;;;;;13.60;99.90;;;;;;5079365;28;20344;-69
2023/01/01 13:19:27;;;;;;;;;;;13.60;99.90;;;;;;5082757;28;19978;-69
2023/01/01 13:21:55;;;;;;;;;;;13.50;99.90;;;;;;5078373;28;19984;-71
2023/01/01 13:24:23;;;;;;;;;;;13.50;99.90;;;;;;5067534;28;19928;-70
2023/01/01 13:26:50;;;;;;;;;;;13.50;99.90;;;;;;5068205;28;20341;-70
2023/01/01 13:29:42;;;;;;;;;;;13.50;99.90;;;;;;5069729;28;19932;-71
2023/01/01 13:32:09;;;;;;;;;;;13.40;99.90;;;;;;5070068;28;19943;-72
2023/01/01 13:34:42;;;;;;;;;;;13.40;99.90;;;;;;5067119;28;20008;-70
2023/01/01 13:37:28;;;;;;;;;;;13.30;99.90;;;;;;5067922;28;19924;-70
2023/01/01 13:39:56;;;;;;;;;;;13.30;99.90;;;;;;5070809;28;19932;-70
2023/01/01 13:42:40;;;;;;;;;;;13.30;99.90;;;;;;5072933;28;19932;-70
2023/01/01 13:45:16;;;;;;;;;;;13.30;99.90;;;;;;5068355;28;19936;-70
2023/01/01 13:47:51;;;;;;;;;;;13.20;99.90;;;;;;5068307;28;20027;-70
2023/01/01 13:50:20;;;;;;;;;;;13.30;99.90;;;;;;5068919;28;19934;-70
2023/01/01 13:52:57;;;;;;;;;;;13.30;99.90;;;;;;5064420;28;20022;-70
2023/01/01 13:55:44;;;;;;;;;;;13.30;99.90;;;;;;5062882;28;19940;-70
2023/01/01 13:58:21;;;;;;;;;;;13.30;99.90;;;;;;5070351;28;19932;-69
2023/01/01 14:00:56;;;;;;;;;;;13.30;99.90;;;;;;5071643;28;19931;-69
2023/01/01 14:03:24;;;;;;;;;;;13.30;99.90;;;;;;5073713;28;20004;-70
2023/01/01 14:05:55;;;;;;;;;;;13.30;99.90;;;;;;5068958;28;20511;-70
2023/01/01 14:08:29;;;;;;;;;;;13.20;99.90;;;;;;5070870;28;19986;-69
2023/01/01 14:10:56;;;;;;;;;;;13.20;99.90;;;;;;5067672;28;19949;-70
2023/01/01 14:13:28;;;;;;;;;;;13.20;99.90;;;;;;5069183;28;19925;-70
2023/01/01 14:15:57;;;;;;;;;;;13.20;99.90;;;;;;5068711;28;19928;-70
2023/01/01 14:18:29;;;;;;;;;;;13.20;99.90;;;;;;5072467;28;19932;-70
2023/01/01 14:20:55;;;;;;;;;;;13.20;99.90;;;;;;5072862;28;20348;-70
2023/01/01 14:23:27;;;;;;;;;;;13.20;99.90;;;;;;5075081;28;20019;-69
2023/01/01 14:25:53;;;;;;;;;;;13.20;99.90;;;;;;5071110;28;19928;-70
2023/01/01 14:28:24;;;;;;;;;;;13.10;99.90;;;;;;5071119;28;20342;-70
2023/01/01 14:30:52;;;;;;;;;;;13.20;99.90;;;;;;5068498;28;19928;-69
2023/01/01 14:33:22;;;;;;;;;;;13.10;99.90;;;;;;5075516;28;19932;-71
2023/01/01 14:35:55;;;;;;;;;;;13.20;99.90;;;;;;5073364;28;20318;-70